createdAt,value
2022-12-25T00:00:57.812Z,79.92
2022-12-25T00:04:17.707Z,80.32
2022-12-25T00:07:25.067Z,79.88
2022-12-25T00:10:45.014Z,79.81
2022-12-25T00:13:53.171Z,80.21
2022-12-25T00:17:13.543Z,79.55
2022-12-25T00:20:29.958Z,79.77
2022-12-25T00:23:44.330Z,79.65
2022-12-25T00:26:59.822Z,79.54
2022-12-25T00:30:22.515Z,79.29
2022-12-25T00:33:35.147Z,79.14
2022-12-25T00:36:41.864Z,78.98
2022-12-25T00:39:52.460Z,79.92
2022-12-25T00:42:59.231Z,80.01
2022-12-25T00:46:05.015Z,80.28
2022-12-25T00:49:18.526Z,79.75
2022-12-25T00:52:41.785Z,80.47
2022-12-25T00:56:01.675Z,80.54
2022-12-25T00:59:23.568Z,80.82
2022-12-25T01:02:45.673Z,81.16
2022-12-25T01:06:00.823Z,82.01
2022-12-25T01:09:50.523Z,82.92
2022-12-25T01:12:54.015Z,81.56
2022-12-25T01:16:16.460Z,81.96
2022-12-25T01:19:37.564Z,81.83
2022-12-25T01:22:59.567Z,81.91
2022-12-25T01:26:24.707Z,82.21
2022-12-25T01:29:27.814Z,81.83
2022-12-25T01:32:30.886Z,82.38
2022-12-25T01:35:41.354Z,82.25
2022-12-25T01:38:45.263Z,81.89
2022-12-25T01:41:49.427Z,82.14
2022-12-25T01:45:36.019Z,82.29
2022-12-25T01:48:51.801Z,82.70
2022-12-25T01:52:23.884Z,82.70
2022-12-25T01:55:48.448Z,83.14
2022-12-25T01:59:15.215Z,82.42
2022-12-25T02:02:38.241Z,82.69
2022-12-25T02:05:54.665Z,82.60
2022-12-25T02:09:10.412Z,82.16
2022-12-25T02:12:46.062Z,83.01
2022-12-25T02:16:14.403Z,82.37
2022-12-25T02:19:53.943Z,82.37
2022-12-25T02:23:28.610Z,83.26
2022-12-25T02:26:55.908Z,83.00
2022-12-25T02:30:10.387Z,82.48
2022-12-25T02:33:45.886Z,82.54
2022-12-25T02:36:55.736Z,83.18
2022-12-25T02:40:07.932Z,83.28
2022-12-25T02:43:37.231Z,82.90
2022-12-25T02:47:04.295Z,82.63
2022-12-25T02:50:35.056Z,82.26
2022-12-25T02:54:06.267Z,82.12
2022-12-25T02:57:50.318Z,82.21
2022-12-25T03:01:38.810Z,82.66
2022-12-25T03:05:18.346Z,82.13
2022-12-25T03:08:34.961Z,82.11
2022-12-25T03:11:48.666Z,83.22
2022-12-25T03:15:23.232Z,82.65
2022-12-25T03:18:34.297Z,81.82
2022-12-25T03:22:10.178Z,82.09
2022-12-25T03:25:37.683Z,82.17
2022-12-25T03:28:40.586Z,82.70
2022-12-25T03:32:03.336Z,83.15
2022-12-25T03:35:29.374Z,83.35
2022-12-25T03:39:09.524Z,83.68
2022-12-25T03:42:40.622Z,83.18
2022-12-25T03:46:09.213Z,83.17
2022-12-25T03:49:55.910Z,83.48
2022-12-25T03:53:30.360Z,82.96
2022-12-25T03:56:54.191Z,83.55
2022-12-25T04:00:21.411Z,83.29
2022-12-25T04:03:47.128Z,82.27
2022-12-25T04:07:12.756Z,82.77
2022-12-25T04:10:35.017Z,82.17
2022-12-25T04:14:15.315Z,81.98
2022-12-25T04:17:47.114Z,82.22
2022-12-25T04:21:12.234Z,82.47
2022-12-25T04:24:37.456Z,82.90
2022-12-25T04:28:02.611Z,83.21
2022-12-25T04:31:31.971Z,82.72
2022-12-25T04:34:54.118Z,83.15
2022-12-25T04:37:57.770Z,82.99
2022-12-25T04:41:05.355Z,82.67
2022-12-25T04:44:18.408Z,82.97
2022-12-25T04:47:25.572Z,83.00
2022-12-25T04:50:29.339Z,83.48
2022-12-25T04:53:52.027Z,83.04
2022-12-25T04:57:13.763Z,83.55
2022-12-25T05:00:35.749Z,83.91
2022-12-25T05:03:44.843Z,84.42
2022-12-25T05:07:01.022Z,85.01
2022-12-25T05:10:37.000Z,84.04
2022-12-25T05:14:05.020Z,84.14
2022-12-25T05:17:29.784Z,84.88
2022-12-25T05:20:51.967Z,85.50
2022-12-25T05:24:01.860Z,85.11
2022-12-25T05:27:11.616Z,85.88
2022-12-25T05:30:21.528Z,86.42
2022-12-25T05:33:31.458Z,86.51
2022-12-25T05:36:47.185Z,85.26
2022-12-25T05:40:16.889Z,84.28
2022-12-25T05:43:39.506Z,85.70
2022-12-25T05:46:56.352Z,83.89
2022-12-25T05:50:12.032Z,84.94
2022-12-25T05:53:40.933Z,86.23
2022-12-25T05:57:07.488Z,86.09
2022-12-25T06:00:23.965Z,86.01
2022-12-25T06:03:43.844Z,85.98
2022-12-25T06:07:00.114Z,85.49
2022-12-25T06:10:28.106Z,84.42
2022-12-25T06:14:04.362Z,84.07
2022-12-25T06:17:24.389Z,84.22
2022-12-25T06:20:44.491Z,84.45
2022-12-25T06:23:53.318Z,85.11
2022-12-25T06:27:08.935Z,85.10
2022-12-25T06:30:37.769Z,85.02
2022-12-25T06:34:12.940Z,84.99
2022-12-25T06:37:22.407Z,84.80
2022-12-25T06:40:44.817Z,84.72
2022-12-25T06:43:54.422Z,84.33
2022-12-25T06:47:04.242Z,85.00
2022-12-25T06:50:11.240Z,85.29
2022-12-25T06:53:18.248Z,85.79
2022-12-25T06:56:24.994Z,85.61
2022-12-25T06:59:31.834Z,85.41
2022-12-25T07:02:54.697Z,85.97
2022-12-25T07:06:04.409Z,86.09
2022-12-25T07:09:20.691Z,85.61
2022-12-25T07:12:50.838Z,84.81
2022-12-25T07:16:18.789Z,86.54
2022-12-25T07:19:44.608Z,86.38
2022-12-25T07:23:01.751Z,85.98
2022-12-25T07:26:18.474Z,85.61
2022-12-25T07:29:22.572Z,85.63
2022-12-25T07:32:25.471Z,85.16
2022-12-25T07:35:32.201Z,86.18
2022-12-25T07:41:43.851Z,86.47
2022-12-25T07:45:03.754Z,85.91
2022-12-25T07:48:24.652Z,85.61
2022-12-25T07:51:38.807Z,86.16
2022-12-25T07:55:06.681Z,85.49
2022-12-25T07:58:33.626Z,85.71
2022-12-25T08:01:56.783Z,85.65
2022-12-25T08:05:13.713Z,85.99
2022-12-25T08:08:34.588Z,85.47
2022-12-25T08:11:55.629Z,85.96
2022-12-25T08:15:18.580Z,85.73
2022-12-25T08:18:48.590Z,85.77
2022-12-25T08:22:08.521Z,86.24
2022-12-25T08:25:28.577Z,86.11
2022-12-25T08:28:32.487Z,85.51
2022-12-25T08:31:46.477Z,86.08
2022-12-25T08:34:50.982Z,86.04
2022-12-25T08:38:00.040Z,86.50
2022-12-25T08:41:12.964Z,86.06
2022-12-25T08:44:22.757Z,86.40
2022-12-25T08:47:29.067Z,84.70
2022-12-25T08:50:41.619Z,83.73
2022-12-25T08:53:59.422Z,84.15
2022-12-25T08:57:23.500Z,84.57
2022-12-25T09:00:43.391Z,84.37
2022-12-25T09:03:50.700Z,84.30
2022-12-25T09:06:54.642Z,83.68
2022-12-25T09:10:04.095Z,83.53
2022-12-25T09:13:27.416Z,83.59
2022-12-25T09:16:57.469Z,82.86
2022-12-25T09:20:17.339Z,84.24
2022-12-25T09:23:37.532Z,83.54
2022-12-25T09:26:53.914Z,83.56
2022-12-25T09:30:16.327Z,83.21
2022-12-25T09:33:50.387Z,83.20
2022-12-25T09:37:15.156Z,83.18
2022-12-25T09:40:40.100Z,82.64
2022-12-25T09:44:00.393Z,80.93
2022-12-25T09:47:25.197Z,79.27
2022-12-25T09:50:56.336Z,77.90
2022-12-25T09:54:26.474Z,76.73
2022-12-25T09:57:33.654Z,75.21
2022-12-25T10:00:58.191Z,74.97
2022-12-25T10:04:40.948Z,74.50
2022-12-25T10:08:03.735Z,73.81
2022-12-25T10:11:25.060Z,73.97
2022-12-25T10:14:58.700Z,73.47
2022-12-25T10:18:30.971Z,72.27
2022-12-25T10:21:48.265Z,72.35
2022-12-25T10:25:13.509Z,71.23
2022-12-25T10:28:45.887Z,70.49
2022-12-25T10:32:06.778Z,71.14
2022-12-25T10:35:31.854Z,72.03
2022-12-25T10:38:52.880Z,71.18
2022-12-25T10:42:41.149Z,71.05
2022-12-25T10:45:49.930Z,71.35
2022-12-25T10:49:00.563Z,71.49
2022-12-25T10:52:22.065Z,71.08
2022-12-25T10:55:39.117Z,71.00
2022-12-25T10:59:06.057Z,70.87
2022-12-25T11:02:34.995Z,70.87
2022-12-25T11:05:38.254Z,70.62
2022-12-25T11:09:02.160Z,70.77
2022-12-25T11:12:27.166Z,70.45
2022-12-25T11:16:03.851Z,70.75
2022-12-25T11:19:30.985Z,70.05
2022-12-25T11:22:48.093Z,69.50
2022-12-25T11:26:07.877Z,68.62
2022-12-25T11:29:36.806Z,68.91
2022-12-25T11:32:55.648Z,68.35
2022-12-25T11:36:14.856Z,68.14
2022-12-25T11:39:38.109Z,66.73
2022-12-25T11:43:07.671Z,66.78
2022-12-25T11:46:31.868Z,66.03
2022-12-25T11:49:58.605Z,66.18
2022-12-25T11:53:19.019Z,66.04
2022-12-25T11:56:29.271Z,66.24
2022-12-25T11:59:57.238Z,66.22
2022-12-25T12:03:21.367Z,66.03
2022-12-25T12:06:51.372Z,65.29
2022-12-25T12:10:06.628Z,64.91
2022-12-25T12:13:44.255Z,65.60
2022-12-25T12:16:52.517Z,64.34
2022-12-25T12:20:38.351Z,63.16
2022-12-25T12:24:18.232Z,63.11
2022-12-25T12:27:40.382Z,62.48
2022-12-25T12:31:29.989Z,62.40
2022-12-25T12:35:05.843Z,61.73
2022-12-25T12:38:34.021Z,60.81
2022-12-25T12:41:53.950Z,60.90
2022-12-25T12:45:18.892Z,60.22
2022-12-25T12:48:40.970Z,59.73
2022-12-25T12:52:06.025Z,58.62
2022-12-25T12:55:29.047Z,58.82
2022-12-25T12:58:53.851Z,59.58
2022-12-25T13:02:31.109Z,59.57
2022-12-25T13:06:00.294Z,60.17
2022-12-25T13:09:34.686Z,60.30
2022-12-25T13:12:38.534Z,60.41
2022-12-25T13:15:47.876Z,60.11
2022-12-25T13:19:05.223Z,60.70
2022-12-25T13:22:39.040Z,60.55
2022-12-25T13:25:53.392Z,60.45
2022-12-25T13:29:01.984Z,60.37
2022-12-25T13:32:27.869Z,61.79
2022-12-25T13:35:46.879Z,62.03
2022-12-25T13:39:02.898Z,61.84
2022-12-25T13:42:15.604Z,61.68
2022-12-25T13:45:23.942Z,61.87
2022-12-25T13:48:37.557Z,61.93
2022-12-25T13:51:48.445Z,62.34
2022-12-25T13:55:12.679Z,62.63
2022-12-25T13:58:42.466Z,62.69
2022-12-25T14:01:47.519Z,63.18
2022-12-25T14:04:56.927Z,63.28
2022-12-25T14:08:17.311Z,63.91
2022-12-25T14:11:25.455Z,64.07
2022-12-25T14:14:44.181Z,64.18
2022-12-25T14:17:48.510Z,65.56
2022-12-25T14:21:16.806Z,65.94
2022-12-25T14:24:26.998Z,67.12
2022-12-25T14:27:33.115Z,67.60
2022-12-25T14:30:47.499Z,67.72
2022-12-25T14:34:07.652Z,68.55
2022-12-25T14:37:32.571Z,68.74
2022-12-25T14:40:48.675Z,68.59
2022-12-25T14:44:14.746Z,69.58
2022-12-25T14:47:28.749Z,69.76
2022-12-25T14:50:56.513Z,70.69
2022-12-25T14:54:22.793Z,69.59
2022-12-25T14:57:38.600Z,69.88
2022-12-25T15:01:01.782Z,70.53
2022-12-25T15:04:25.694Z,71.57
2022-12-25T15:07:47.645Z,71.73
2022-12-25T15:11:11.548Z,71.77
2022-12-25T15:14:26.618Z,72.51
2022-12-25T15:17:50.496Z,73.23
2022-12-25T15:21:14.490Z,73.76
2022-12-25T15:24:24.531Z,74.55
2022-12-25T15:27:42.063Z,75.34
2022-12-25T15:31:10.538Z,75.33
2022-12-25T15:34:21.598Z,76.05
2022-12-25T15:37:25.551Z,75.91
2022-12-25T15:40:28.634Z,76.27
2022-12-25T15:43:41.381Z,76.09
2022-12-25T15:46:46.132Z,75.96
2022-12-25T15:49:52.943Z,76.14
2022-12-25T15:53:05.874Z,76.44
2022-12-25T15:56:11.685Z,76.55
2022-12-25T15:59:20.987Z,76.62
2022-12-25T16:02:42.207Z,77.62
2022-12-25T16:06:05.364Z,77.56
2022-12-25T16:09:33.226Z,77.88
2022-12-25T16:12:48.304Z,77.35
2022-12-25T16:16:04.449Z,76.66
2022-12-25T16:19:34.324Z,75.68
2022-12-25T16:22:55.168Z,75.32
2022-12-25T16:26:18.292Z,74.73
2022-12-25T16:29:42.284Z,74.74
2022-12-25T16:33:04.355Z,74.78
2022-12-25T16:36:27.188Z,74.67
2022-12-25T16:39:43.408Z,75.18
2022-12-25T16:43:03.292Z,75.72
2022-12-25T16:46:33.237Z,75.81
2022-12-25T16:49:49.284Z,76.18
2022-12-25T16:53:12.579Z,76.18
2022-12-25T16:56:35.300Z,75.81
2022-12-25T17:00:02.259Z,76.35
2022-12-25T17:03:26.466Z,76.83
2022-12-25T17:06:46.337Z,76.75
2022-12-25T17:10:04.218Z,76.72
2022-12-25T17:13:34.204Z,77.32
2022-12-25T17:16:55.256Z,77.53
2022-12-25T17:20:12.374Z,77.54
2022-12-25T17:23:35.191Z,77.63
2022-12-25T17:26:49.262Z,77.30
2022-12-25T17:29:54.214Z,77.45
2022-12-25T17:32:58.322Z,77.45
2022-12-25T17:36:12.049Z,77.41
2022-12-25T17:39:35.095Z,77.92
2022-12-25T17:42:56.136Z,77.79
2022-12-25T17:46:13.398Z,77.83
2022-12-25T17:49:42.118Z,77.26
2022-12-25T17:52:57.029Z,76.77
2022-12-25T17:56:01.014Z,76.84
2022-12-25T17:59:30.024Z,77.47
2022-12-25T18:02:43.905Z,76.69
2022-12-25T18:05:54.535Z,76.98
2022-12-25T18:09:00.586Z,76.48
2022-12-25T18:12:04.450Z,77.19
2022-12-25T18:15:08.932Z,77.50
2022-12-25T18:18:29.751Z,78.23
2022-12-25T18:21:39.901Z,77.64
2022-12-25T18:24:56.142Z,78.44
2022-12-25T18:28:25.049Z,77.87
2022-12-25T18:31:58.995Z,78.02
2022-12-25T18:35:21.981Z,78.66
2022-12-25T18:38:43.947Z,77.68
2022-12-25T18:42:19.989Z,78.57
2022-12-25T18:45:31.037Z,77.46
2022-12-25T18:48:51.805Z,78.13
2022-12-25T18:52:47.536Z,77.80
2022-12-25T18:55:41.000Z,78.22
2022-12-25T18:58:57.931Z,78.11
2022-12-25T19:02:22.074Z,77.98
2022-12-25T19:05:45.078Z,78.10
2022-12-25T19:09:09.845Z,78.00
2022-12-25T19:12:27.901Z,77.64
2022-12-25T19:15:53.924Z,77.40
2022-12-25T19:19:15.863Z,76.84
2022-12-25T19:22:39.036Z,77.41
2022-12-25T19:25:56.060Z,77.41
2022-12-25T19:29:13.963Z,77.39
2022-12-25T19:32:37.114Z,76.88
2022-12-25T19:36:01.922Z,77.39
2022-12-25T19:39:25.104Z,76.66
2022-12-25T19:42:48.825Z,76.60
2022-12-25T19:46:09.996Z,77.20
2022-12-25T19:49:29.918Z,76.59
2022-12-25T19:52:49.850Z,76.56
2022-12-25T19:56:12.943Z,77.11
2022-12-25T19:59:16.341Z,76.68
2022-12-25T20:02:20.321Z,77.03
2022-12-25T20:05:40.577Z,75.83
2022-12-25T20:09:04.508Z,75.04
2022-12-25T20:12:20.951Z,74.04
2022-12-25T20:15:40.746Z,73.70
2022-12-25T20:19:07.779Z,72.93
2022-12-25T20:22:29.601Z,72.56
2022-12-25T20:25:52.601Z,73.56
2022-12-25T20:29:14.592Z,73.74
2022-12-25T20:32:36.565Z,74.28
2022-12-25T20:35:45.980Z,75.07
2022-12-25T20:38:49.669Z,75.23
2022-12-25T20:41:53.392Z,75.29
2022-12-25T20:44:56.141Z,75.72
2022-12-25T20:48:00.432Z,75.58
2022-12-25T20:51:21.863Z,75.22
2022-12-25T20:54:35.485Z,75.45
2022-12-25T20:57:53.535Z,75.11
2022-12-25T21:01:19.643Z,75.32
2022-12-25T21:04:40.615Z,75.97
2022-12-25T21:08:02.622Z,75.56
2022-12-25T21:11:24.656Z,75.28
2022-12-25T21:14:47.598Z,75.95
2022-12-25T21:18:11.461Z,74.86
2022-12-25T21:21:33.543Z,74.45
2022-12-25T21:24:56.628Z,74.28
2022-12-25T21:27:59.969Z,74.11
2022-12-25T21:31:08.347Z,72.96
2022-12-25T21:34:15.582Z,73.37
2022-12-25T21:37:32.116Z,73.79
2022-12-25T21:40:54.516Z,73.98
2022-12-25T21:44:20.087Z,73.61
2022-12-25T21:48:01.881Z,73.68
2022-12-25T21:51:36.833Z,74.08
2022-12-25T21:54:40.730Z,74.32
2022-12-25T21:57:48.487Z,74.15
2022-12-25T22:01:09.680Z,74.25
2022-12-25T22:04:28.699Z,74.73
2022-12-25T22:07:49.956Z,74.74
2022-12-25T22:11:37.074Z,75.42
2022-12-25T22:14:54.883Z,75.57
2022-12-25T22:18:22.141Z,75.16
2022-12-25T22:21:26.543Z,75.32
2022-12-25T22:24:29.352Z,74.92
2022-12-25T22:27:33.989Z,74.76
2022-12-25T22:30:42.168Z,74.97
2022-12-25T22:33:55.922Z,74.53
2022-12-25T22:37:08.595Z,74.69
2022-12-25T22:40:17.584Z,74.92
2022-12-25T22:43:43.308Z,75.60
2022-12-25T22:46:48.773Z,75.76
2022-12-25T22:50:06.171Z,75.19
2022-12-25T22:53:28.170Z,74.90
2022-12-25T22:56:44.616Z,74.26
2022-12-25T22:59:54.106Z,74.90
2022-12-25T23:03:04.903Z,74.53
2022-12-25T23:06:14.725Z,74.57
2022-12-25T23:09:31.557Z,73.86
2022-12-25T23:12:57.892Z,74.54
2022-12-25T23:16:13.565Z,73.73
2022-12-25T23:19:39.506Z,73.84
2022-12-25T23:23:14.730Z,74.25
2022-12-25T23:26:23.864Z,73.93
2022-12-25T23:29:46.298Z,73.88
2022-12-25T23:32:49.941Z,73.48
2022-12-25T23:35:54.631Z,73.98
2022-12-25T23:39:01.737Z,74.43
2022-12-25T23:42:22.511Z,74.65
2022-12-25T23:45:25.452Z,74.06
2022-12-25T23:48:29.539Z,73.98
2022-12-25T23:51:43.873Z,74.80
2022-12-25T23:54:59.296Z,75.65
2022-12-25T23:58:15.295Z,75.65
